Hooksett, New Hampshire
Current Conditions -  °F | °C
As of 11:51 AM on Thursday 30 Oct 2014 (Local Time) from KCON Reporting Station
Scattered Clouds Scattered Clouds  
Wind Chill: 53°   Ceiling: Unl
Heat Index: 53°   Visibility: 10mi
Dew Point: 41°   Wind: 7mph
Humidity: 64%   Direction: 310°NW
Pressure: 29.93"   Gusts: NA
Location:  43.09°N, 71.46°W
Report Text: KCON 301551Z AUTO 31006KT 10SM SCT080 12/05 A2993 RMK AO2 SLP136 T01170050
Loading
Personal Weather Stations






























Interactive Weather Map
Tropical Storm Tracking
New forecast layout! Learn more

10-Day Weather Forecast

Advertisements
Track Severe Weather on mobile